createdAt,value
2018-01-21T01:39:06.510Z,1003.97
2018-01-21T01:39:07.070Z,1003.97
2018-01-21T01:39:07.678Z,1004.04
2018-01-21T01:39:08.270Z,1003.99
2018-01-21T01:39:08.870Z,1004.00
2018-01-21T01:39:09.470Z,1003.99
2018-01-21T01:39:10.070Z,1004.00
2018-01-21T01:39:10.673Z,1004.02
2018-01-21T01:40:05.152Z,1004.08
2018-01-21T01:40:05.747Z,1004.04
2018-01-21T01:40:06.346Z,1004.05
2018-01-21T01:40:06.948Z,1004.06
2018-01-21T01:40:07.547Z,1004.06
2018-01-21T01:40:08.146Z,1004.07
2018-01-21T01:40:08.747Z,1004.06
2018-01-21T01:40:09.344Z,1004.05
2018-01-21T01:41:03.825Z,1004.07
2018-01-21T01:41:04.428Z,1004.09
2018-01-21T01:41:05.022Z,1004.08
2018-01-21T01:41:05.623Z,1004.08
2018-01-21T01:41:06.221Z,1004.07
2018-01-21T01:41:06.821Z,1004.09
2018-01-21T01:41:07.420Z,1004.06
2018-01-21T01:41:08.021Z,1004.09
2018-01-21T01:42:01.479Z,1004.12
2018-01-21T01:42:02.076Z,1004.11
2018-01-21T01:42:02.676Z,1004.09
2018-01-21T01:42:03.274Z,1004.10
2018-01-21T01:42:03.875Z,1004.10
2018-01-21T01:42:04.474Z,1004.13
2018-01-21T01:42:05.074Z,1004.10
2018-01-21T01:42:05.673Z,1004.11
2018-01-21T01:42:59.130Z,1004.15
2018-01-21T01:42:59.727Z,1004.11
2018-01-21T01:43:00.329Z,1004.13
2018-01-21T01:43:00.925Z,1004.14
2018-01-21T01:43:01.526Z,1004.10
2018-01-21T01:43:02.126Z,1004.10
2018-01-21T01:43:02.724Z,1004.13
2018-01-21T01:43:03.324Z,1004.15
2018-01-21T01:43:57.806Z,1004.18
2018-01-21T01:43:58.402Z,1004.18
2018-01-21T01:43:59.003Z,1004.14
2018-01-21T01:43:59.601Z,1004.15
2018-01-21T01:44:00.201Z,1004.18
2018-01-21T01:44:00.802Z,1004.15
2018-01-21T01:44:01.402Z,1004.15
2018-01-21T01:44:02.002Z,1004.14
2018-01-21T01:44:55.491Z,1004.17
2018-01-21T01:44:56.056Z,1004.15
2018-01-21T01:44:56.657Z,1004.18
2018-01-21T01:44:57.256Z,1004.16
2018-01-21T01:44:57.857Z,1004.18
2018-01-21T01:44:58.458Z,1004.20
2018-01-21T01:44:59.064Z,1004.16
2018-01-21T01:44:59.655Z,1004.17
2018-01-21T01:45:53.112Z,1004.20
2018-01-21T01:45:53.707Z,1004.19
2018-01-21T01:45:54.307Z,1004.18
2018-01-21T01:45:54.908Z,1004.19
2018-01-21T01:45:55.508Z,1004.22
2018-01-21T01:45:56.106Z,1004.15
2018-01-21T01:45:56.707Z,1004.17
2018-01-21T01:45:57.307Z,1004.18
2018-01-21T01:46:50.762Z,1004.18
2018-01-21T01:46:51.359Z,1004.22
2018-01-21T01:46:51.960Z,1004.21
2018-01-21T01:46:52.560Z,1004.22
2018-01-21T01:46:53.159Z,1004.20
2018-01-21T01:46:53.759Z,1004.20
2018-01-21T01:46:54.358Z,1004.22
2018-01-21T01:46:54.958Z,1004.22
2018-01-21T01:47:48.416Z,1004.21
2018-01-21T01:47:49.013Z,1004.21
2018-01-21T01:47:49.612Z,1004.26
2018-01-21T01:47:50.211Z,1004.22
2018-01-21T01:47:50.811Z,1004.21
2018-01-21T01:47:51.411Z,1004.23
2018-01-21T01:47:52.010Z,1004.22
2018-01-21T01:47:52.611Z,1004.23
2018-01-21T01:48:46.067Z,1004.19
2018-01-21T01:48:46.671Z,1004.20
2018-01-21T01:48:47.263Z,1004.21
2018-01-21T01:48:47.864Z,1004.19
2018-01-21T01:48:48.463Z,1004.22
2018-01-21T01:48:49.063Z,1004.20
2018-01-21T01:48:49.662Z,1004.20
2018-01-21T01:48:50.262Z,1004.20
2018-01-21T01:49:43.719Z,1004.21
2018-01-21T01:49:44.315Z,1004.22
2018-01-21T01:49:44.914Z,1004.24
2018-01-21T01:49:45.516Z,1004.20
2018-01-21T01:49:46.114Z,1004.23
2018-01-21T01:49:46.714Z,1004.17
2018-01-21T01:49:47.315Z,1004.20
2018-01-21T01:49:47.913Z,1004.23
2018-01-21T01:50:42.428Z,1004.22
2018-01-21T01:50:42.995Z,1004.25
2018-01-21T01:50:43.591Z,1004.22
2018-01-21T01:50:44.190Z,1004.24
2018-01-21T01:50:44.793Z,1004.20
2018-01-21T01:50:45.389Z,1004.25
2018-01-21T01:50:45.989Z,1004.24
2018-01-21T01:50:46.590Z,1004.25
2018-01-21T01:51:41.070Z,1004.23
2018-01-21T01:51:41.667Z,1004.23
2018-01-21T01:51:42.265Z,1004.22
2018-01-21T01:51:42.867Z,1004.22
2018-01-21T01:51:43.467Z,1004.23
2018-01-21T01:51:44.065Z,1004.27
2018-01-21T01:51:44.665Z,1004.26
2018-01-21T01:51:45.266Z,1004.24
2018-01-21T01:52:38.725Z,1004.27
2018-01-21T01:52:39.323Z,1004.27
2018-01-21T01:52:39.920Z,1004.25
2018-01-21T01:52:40.524Z,1004.24
2018-01-21T01:52:41.117Z,1004.27
2018-01-21T01:52:41.717Z,1004.24
2018-01-21T01:52:42.317Z,1004.25
2018-01-21T01:52:42.918Z,1004.26
2018-01-21T01:53:37.400Z,1004.24
2018-01-21T01:53:37.995Z,1004.26
2018-01-21T01:53:38.594Z,1004.24
2018-01-21T01:53:39.193Z,1004.28
2018-01-21T01:53:39.794Z,1004.27
2018-01-21T01:53:40.393Z,1004.26
2018-01-21T01:53:40.992Z,1004.25
2018-01-21T01:53:41.592Z,1004.28
2018-01-21T01:54:36.072Z,1004.27
2018-01-21T01:54:36.672Z,1004.24
2018-01-21T01:54:37.269Z,1004.28
2018-01-21T01:54:37.868Z,1004.29
2018-01-21T01:54:38.468Z,1004.27
2018-01-21T01:54:39.069Z,1004.26
2018-01-21T01:54:39.670Z,1004.30
2018-01-21T01:54:40.267Z,1004.27
2018-01-21T01:55:34.747Z,1004.28
2018-01-21T01:55:35.348Z,1004.31
2018-01-21T01:55:35.944Z,1004.30
2018-01-21T01:55:36.544Z,1004.32
2018-01-21T01:55:37.145Z,1004.29
2018-01-21T01:55:37.744Z,1004.33
2018-01-21T01:55:38.343Z,1004.32
2018-01-21T01:55:38.944Z,1004.29
2018-01-21T01:56:33.457Z,1004.36
2018-01-21T01:56:34.020Z,1004.33
2018-01-21T01:56:34.619Z,1004.31
2018-01-21T01:56:35.221Z,1004.36
2018-01-21T01:56:35.819Z,1004.34
2018-01-21T01:56:36.419Z,1004.36
2018-01-21T01:56:37.020Z,1004.34
2018-01-21T01:56:37.618Z,1004.35
2018-01-21T01:57:32.103Z,1004.38
2018-01-21T01:57:32.700Z,1004.35
2018-01-21T01:57:33.297Z,1004.37
2018-01-21T01:57:33.901Z,1004.41
2018-01-21T01:57:34.495Z,1004.41
2018-01-21T01:57:35.096Z,1004.36
2018-01-21T01:57:35.695Z,1004.40
2018-01-21T01:57:36.294Z,1004.34
2018-01-21T01:58:29.754Z,1004.39
2018-01-21T01:58:30.350Z,1004.40
2018-01-21T01:58:30.948Z,1004.41
2018-01-21T01:58:31.549Z,1004.39
2018-01-21T01:58:32.149Z,1004.39
2018-01-21T01:58:32.750Z,1004.39
2018-01-21T01:58:33.348Z,1004.39
2018-01-21T01:58:33.947Z,1004.39
2018-01-21T01:59:27.406Z,1004.43
2018-01-21T01:59:28.003Z,1004.44
2018-01-21T01:59:28.601Z,1004.46
2018-01-21T01:59:29.202Z,1004.44
2018-01-21T01:59:29.800Z,1004.42
2018-01-21T01:59:30.400Z,1004.46
2018-01-21T01:59:31.000Z,1004.43
2018-01-21T01:59:31.602Z,1004.44
2018-01-21T02:00:26.081Z,1004.48
2018-01-21T02:00:26.679Z,1004.48
2018-01-21T02:00:27.274Z,1004.49
2018-01-21T02:00:27.877Z,1004.47
2018-01-21T02:00:28.474Z,1004.43
2018-01-21T02:00:29.075Z,1004.46
2018-01-21T02:00:29.675Z,1004.47
2018-01-21T02:00:30.274Z,1004.52
2018-01-21T02:01:23.732Z,1004.50
2018-01-21T02:01:24.330Z,1004.49
2018-01-21T02:01:24.928Z,1004.48
2018-01-21T02:01:25.528Z,1004.49
2018-01-21T02:01:26.129Z,1004.53
2018-01-21T02:01:26.731Z,1004.54
2018-01-21T02:01:27.327Z,1004.50
2018-01-21T02:01:27.927Z,1004.52
2018-01-21T02:02:21.415Z,1004.51
2018-01-21T02:02:21.980Z,1004.52
2018-01-21T02:02:22.580Z,1004.49
2018-01-21T02:02:23.180Z,1004.49
2018-01-21T02:02:23.780Z,1004.50
2018-01-21T02:02:24.378Z,1004.50
2018-01-21T02:02:24.981Z,1004.49
2018-01-21T02:02:25.579Z,1004.51
2018-01-21T02:03:19.035Z,1004.51
2018-01-21T02:03:19.636Z,1004.50
2018-01-21T02:03:20.233Z,1004.47
2018-01-21T02:03:20.832Z,1004.45
2018-01-21T02:03:21.437Z,1004.49
2018-01-21T02:03:22.033Z,1004.49
2018-01-21T02:03:22.630Z,1004.47
2018-01-21T02:03:23.230Z,1004.53
2018-01-21T02:04:16.687Z,1004.53
2018-01-21T02:04:17.286Z,1004.52
2018-01-21T02:04:17.883Z,1004.53
2018-01-21T02:04:18.483Z,1004.50
2018-01-21T02:04:19.083Z,1004.56
2018-01-21T02:04:19.697Z,1004.50
2018-01-21T02:04:20.282Z,1004.51
2018-01-21T02:04:20.882Z,1004.52
2018-01-21T02:05:14.340Z,1004.55
2018-01-21T02:05:14.936Z,1004.51
2018-01-21T02:05:15.534Z,1004.53
2018-01-21T02:05:16.135Z,1004.49
2018-01-21T02:05:16.736Z,1004.52
2018-01-21T02:05:17.335Z,1004.54
2018-01-21T02:05:17.934Z,1004.59
2018-01-21T02:05:18.534Z,1004.54
2018-01-21T02:06:11.990Z,1004.55
2018-01-21T02:06:12.587Z,1004.53
2018-01-21T02:06:13.190Z,1004.53
2018-01-21T02:06:13.787Z,1004.50
2018-01-21T02:06:14.386Z,1004.49
2018-01-21T02:06:14.985Z,1004.52
2018-01-21T02:06:15.587Z,1004.49
2018-01-21T02:06:16.186Z,1004.52
2018-01-21T02:07:10.666Z,1004.55
2018-01-21T02:07:11.266Z,1004.56
2018-01-21T02:07:11.861Z,1004.55
2018-01-21T02:07:12.460Z,1004.55
2018-01-21T02:07:13.060Z,1004.56
2018-01-21T02:07:13.661Z,1004.53
2018-01-21T02:07:14.260Z,1004.55
2018-01-21T02:07:14.859Z,1004.54
2018-01-21T02:08:09.457Z,1004.57
2018-01-21T02:08:09.954Z,1004.56
2018-01-21T02:08:10.538Z,1004.55
2018-01-21T02:08:11.137Z,1004.54
2018-01-21T02:08:11.736Z,1004.53
2018-01-21T02:08:12.336Z,1004.56
2018-01-21T02:08:12.992Z,1004.54
2018-01-21T02:08:13.537Z,1004.56
2018-01-21T02:09:08.532Z,1004.60
2018-01-21T02:09:09.128Z,1004.62
2018-01-21T02:09:09.727Z,1004.61
2018-01-21T02:09:10.324Z,1004.59
2018-01-21T02:09:10.928Z,1004.60
2018-01-21T02:09:11.524Z,1004.60
2018-01-21T02:09:12.125Z,1004.61
2018-01-21T02:24:34.806Z,1004.74
2018-01-21T02:24:35.368Z,1004.71
2018-01-21T02:24:35.967Z,1004.76
2018-01-21T02:24:36.567Z,1004.76
2018-01-21T02:24:37.166Z,1004.75
2018-01-21T02:24:37.765Z,1004.69
2018-01-21T02:24:38.368Z,1004.75
2018-01-21T02:24:38.988Z,1004.73
2018-01-21T02:24:39.564Z,1004.73
2018-01-21T02:24:40.164Z,1004.77
2018-01-21T02:24:40.773Z,1004.76
2018-01-21T02:24:41.364Z,1004.74
2018-01-21T02:28:40.847Z,1004.82
2018-01-21T02:28:41.354Z,1004.78
2018-01-21T02:28:41.950Z,1004.81
2018-01-21T02:28:42.553Z,1004.81
2018-01-21T02:28:43.157Z,1004.78
2018-01-21T02:28:43.751Z,1004.81
2018-01-21T02:28:44.351Z,1004.80
2018-01-21T02:28:44.951Z,1004.83
2018-01-21T02:28:45.557Z,1004.83
2018-01-21T02:28:46.150Z,1004.82
2018-01-21T02:29:41.165Z,1004.82
2018-01-21T02:29:41.724Z,1004.78
2018-01-21T02:29:42.322Z,1004.78
2018-01-21T02:29:42.924Z,1004.79
2018-01-21T02:29:43.522Z,1004.78
2018-01-21T02:29:44.121Z,1004.80
2018-01-21T02:30:38.574Z,1004.81
2018-01-21T02:30:39.171Z,1004.77
2018-01-21T02:30:39.768Z,1004.81
2018-01-21T02:30:40.369Z,1004.83
2018-01-21T02:30:40.969Z,1004.81
2018-01-21T02:30:41.573Z,1004.79
2018-01-21T02:30:42.168Z,1004.82
2018-01-21T02:32:29.698Z,1004.83
2018-01-21T02:33:44.740Z,1004.84
2018-01-21T02:33:45.337Z,1004.81
2018-01-21T02:33:45.936Z,1004.84
2018-01-21T02:33:46.535Z,1004.82
2018-01-21T02:33:47.134Z,1004.83
2018-01-21T02:33:47.734Z,1004.82
2018-01-21T02:34:41.811Z,1004.86
2018-01-21T02:34:42.374Z,1004.85
2018-01-21T02:34:42.975Z,1004.87
2018-01-21T02:52:10.498Z,1005.02
2018-01-21T02:52:11.056Z,1005.02
2018-01-21T02:52:11.657Z,1005.06
2018-01-21T02:52:12.256Z,1005.01
2018-01-21T02:52:12.856Z,1005.04
2018-01-21T02:52:13.454Z,1005.01
2018-01-21T02:52:14.055Z,1005.04
2018-01-21T02:52:14.698Z,1005.08
2018-01-21T02:53:08.112Z,1005.07
2018-01-21T02:53:08.729Z,1005.10
2018-01-21T02:53:09.307Z,1005.06
2018-01-21T02:53:09.906Z,1005.08
2018-01-21T02:53:10.506Z,1005.07
2018-01-21T02:53:11.113Z,1005.09
2018-01-21T02:53:11.705Z,1005.07
2018-01-21T02:53:12.306Z,1005.10
2018-01-21T02:54:05.764Z,1005.08
2018-01-21T02:54:06.360Z,1005.09
2018-01-21T02:54:06.960Z,1005.08
2018-01-21T02:54:07.559Z,1005.11
2018-01-21T02:54:08.159Z,1005.05
2018-01-21T02:54:08.760Z,1005.08
2018-01-21T02:54:09.358Z,1005.10
2018-01-21T02:54:09.971Z,1005.08
2018-01-21T02:55:03.416Z,1005.06
2018-01-21T02:55:04.020Z,1005.10
2018-01-21T02:55:04.611Z,1005.06
2018-01-21T02:55:05.210Z,1005.11
2018-01-21T02:55:05.812Z,1005.08
2018-01-21T02:55:06.420Z,1005.07
2018-01-21T02:55:07.010Z,1005.09
2018-01-21T02:55:07.615Z,1005.05
2018-01-21T02:56:02.091Z,1005.13
2018-01-21T02:56:02.688Z,1005.11
2018-01-21T02:56:03.286Z,1005.09
2018-01-21T02:56:03.887Z,1005.09
2018-01-21T02:56:04.487Z,1005.12
2018-01-21T02:56:05.091Z,1005.12
2018-01-21T02:56:05.686Z,1005.07
2018-01-21T02:56:06.285Z,1005.13
2018-01-21T02:57:00.770Z,1005.12
2018-01-21T02:57:01.370Z,1005.15
2018-01-21T02:57:01.963Z,1005.14
2018-01-21T02:57:02.563Z,1005.13
2018-01-21T02:57:03.163Z,1005.13
2018-01-21T02:57:03.763Z,1005.16
2018-01-21T02:57:04.361Z,1005.16
2018-01-21T02:57:04.961Z,1005.19
2018-01-21T02:57:58.451Z,1005.15
2018-01-21T02:57:59.017Z,1005.11
2018-01-21T02:57:59.617Z,1005.10
2018-01-21T02:58:00.215Z,1005.11
2018-01-21T02:58:00.815Z,1005.14
2018-01-21T02:58:01.414Z,1005.16
2018-01-21T02:58:02.014Z,1005.14
2018-01-21T02:58:02.614Z,1005.16
2018-01-21T02:58:56.071Z,1005.18
2018-01-21T02:58:56.676Z,1005.11
2018-01-21T02:58:57.266Z,1005.14
2018-01-21T02:58:57.866Z,1005.13
2018-01-21T02:58:58.467Z,1005.16
2018-01-21T02:58:59.068Z,1005.15
2018-01-21T02:58:59.667Z,1005.19
2018-01-21T02:59:00.266Z,1005.18
2018-01-21T02:59:54.753Z,1005.17
2018-01-21T02:59:55.344Z,1005.16
2018-01-21T02:59:55.942Z,1005.18
2018-01-21T02:59:56.542Z,1005.14
2018-01-21T02:59:57.142Z,1005.12
2018-01-21T02:59:57.741Z,1005.15
2018-01-21T02:59:58.342Z,1005.21
2018-01-21T02:59:58.942Z,1005.19
2018-01-21T03:00:52.400Z,1005.17
2018-01-21T03:00:52.999Z,1005.18
2018-01-21T03:00:53.594Z,1005.23
2018-01-21T03:00:54.195Z,1005.19
2018-01-21T03:00:54.794Z,1005.21
2018-01-21T03:00:55.392Z,1005.18
2018-01-21T03:00:55.994Z,1005.20
2018-01-21T03:00:56.593Z,1005.22
2018-01-21T03:01:51.586Z,1005.21
2018-01-21T03:01:52.185Z,1005.19
2018-01-21T03:01:52.782Z,1005.23
2018-01-21T03:01:53.381Z,1005.23
2018-01-21T03:01:53.989Z,1005.18
2018-01-21T03:01:54.589Z,1005.22
2018-01-21T03:01:55.180Z,1005.23
2018-01-21T03:02:49.646Z,1005.25
2018-01-21T03:02:50.248Z,1005.21
2018-01-21T03:02:50.842Z,1005.24
2018-01-21T03:02:51.443Z,1005.22
2018-01-21T03:02:52.044Z,1005.24
2018-01-21T03:02:52.642Z,1005.23
2018-01-21T03:02:53.241Z,1005.23
2018-01-21T03:02:53.843Z,1005.23
2018-01-21T03:03:48.356Z,1005.22
2018-01-21T03:03:48.927Z,1005.22
2018-01-21T03:03:49.519Z,1005.24
2018-01-21T03:03:50.119Z,1005.26
2018-01-21T03:03:50.718Z,1005.23
2018-01-21T03:03:51.319Z,1005.23
2018-01-21T03:03:51.920Z,1005.23
2018-01-21T03:03:52.518Z,1005.24
2018-01-21T03:04:45.975Z,1005.27
2018-01-21T03:04:46.576Z,1005.29
2018-01-21T03:04:47.171Z,1005.26
2018-01-21T03:04:47.772Z,1005.29
2018-01-21T03:04:48.373Z,1005.27
2018-01-21T03:04:48.973Z,1005.24
2018-01-21T03:04:49.571Z,1005.29
2018-01-21T03:04:50.172Z,1005.26
2018-01-21T03:05:44.650Z,1005.26
2018-01-21T03:05:45.248Z,1005.25
2018-01-21T03:05:45.847Z,1005.27
2018-01-21T03:05:46.446Z,1005.28
2018-01-21T03:05:47.046Z,1005.23
2018-01-21T03:05:47.646Z,1005.27
2018-01-21T03:05:48.246Z,1005.28
2018-01-21T03:05:48.848Z,1005.27
2018-01-21T03:06:42.302Z,1005.26
2018-01-21T03:06:42.902Z,1005.26
2018-01-21T03:06:43.500Z,1005.28
2018-01-21T03:06:44.099Z,1005.25
2018-01-21T03:06:44.698Z,1005.26
2018-01-21T03:06:45.300Z,1005.26
2018-01-21T03:06:45.898Z,1005.29
2018-01-21T03:06:46.498Z,1005.29
2018-01-21T03:07:39.955Z,1005.27
2018-01-21T03:07:40.553Z,1005.24
2018-01-21T03:07:41.151Z,1005.22
2018-01-21T03:07:41.751Z,1005.27
2018-01-21T03:07:42.352Z,1005.26
2018-01-21T03:07:42.950Z,1005.29
2018-01-21T03:07:43.549Z,1005.25
2018-01-21T03:07:44.151Z,1005.26
2018-01-21T03:08:38.631Z,1005.29
2018-01-21T03:08:39.232Z,1005.32
2018-01-21T03:08:39.826Z,1005.29
2018-01-21T03:08:40.425Z,1005.26
2018-01-21T03:08:41.025Z,1005.28
2018-01-21T03:08:41.625Z,1005.31
2018-01-21T03:08:42.225Z,1005.28
2018-01-21T03:08:42.825Z,1005.27
2018-01-21T03:09:37.339Z,1005.33
2018-01-21T03:09:37.903Z,1005.32
2018-01-21T03:09:38.502Z,1005.29
2018-01-21T03:09:39.101Z,1005.32
2018-01-21T03:09:39.703Z,1005.31
2018-01-21T03:09:40.301Z,1005.34
2018-01-21T03:09:40.901Z,1005.29
2018-01-21T03:09:41.501Z,1005.33
2018-01-21T03:10:34.957Z,1005.33
2018-01-21T03:10:35.557Z,1005.29
2018-01-21T03:10:36.154Z,1005.32
2018-01-21T03:10:36.754Z,1005.32
2018-01-21T03:10:37.354Z,1005.31
2018-01-21T03:10:37.955Z,1005.31
2018-01-21T03:10:38.559Z,1005.32
2018-01-21T03:10:39.153Z,1005.32
2018-01-21T03:11:32.609Z,1005.35
2018-01-21T03:11:33.207Z,1005.35
2018-01-21T03:11:33.807Z,1005.28
2018-01-21T03:11:34.406Z,1005.32
2018-01-21T03:11:35.005Z,1005.35
2018-01-21T03:11:35.607Z,1005.34
2018-01-21T03:11:36.205Z,1005.37
2018-01-21T03:11:36.804Z,1005.31
2018-01-21T03:12:30.261Z,1005.40
2018-01-21T03:12:30.862Z,1005.38
2018-01-21T03:12:31.457Z,1005.35
2018-01-21T03:12:32.058Z,1005.35
2018-01-21T03:12:32.657Z,1005.34
2018-01-21T03:12:33.259Z,1005.34
2018-01-21T03:12:33.856Z,1005.36
2018-01-21T03:12:34.460Z,1005.34
2018-01-21T03:13:27.914Z,1005.40
2018-01-21T03:13:28.512Z,1005.38
2018-01-21T03:13:29.109Z,1005.40
2018-01-21T03:13:29.711Z,1005.40
2018-01-21T03:13:30.310Z,1005.37
2018-01-21T03:13:30.910Z,1005.35
2018-01-21T03:13:31.516Z,1005.37
2018-01-21T03:13:32.110Z,1005.35
2018-01-21T03:14:26.586Z,1005.41
2018-01-21T03:14:27.183Z,1005.39
2018-01-21T03:14:27.783Z,1005.41
2018-01-21T03:14:28.384Z,1005.38
2018-01-21T03:14:28.983Z,1005.39
2018-01-21T03:14:29.598Z,1005.40
2018-01-21T03:14:30.183Z,1005.40
2018-01-21T03:14:30.783Z,1005.37
2018-01-21T03:15:25.297Z,1005.45
2018-01-21T03:15:25.860Z,1005.43
2018-01-21T03:15:26.466Z,1005.40
2018-01-21T03:15:27.060Z,1005.43
2018-01-21T03:15:27.660Z,1005.40
2018-01-21T03:15:28.261Z,1005.42
2018-01-21T03:15:28.860Z,1005.41
2018-01-21T03:15:29.459Z,1005.42
2018-01-21T03:16:23.938Z,1005.43
2018-01-21T03:16:24.539Z,1005.39
2018-01-21T03:16:25.136Z,1005.37
2018-01-21T03:16:25.736Z,1005.41
2018-01-21T03:16:26.334Z,1005.42
2018-01-21T03:16:26.934Z,1005.40
2018-01-21T03:16:27.535Z,1005.41
2018-01-21T03:16:28.135Z,1005.43
2018-01-21T03:17:22.614Z,1005.44
2018-01-21T03:17:23.213Z,1005.41
2018-01-21T03:17:23.810Z,1005.39
2018-01-21T03:17:24.414Z,1005.39
2018-01-21T03:17:25.012Z,1005.43
2018-01-21T03:17:25.610Z,1005.42
2018-01-21T03:17:26.209Z,1005.42
2018-01-21T03:17:26.810Z,1005.44
2018-01-21T03:18:20.266Z,1005.44
2018-01-21T03:18:20.864Z,1005.44
2018-01-21T03:18:21.466Z,1005.44
2018-01-21T03:18:22.067Z,1005.42
2018-01-21T03:18:22.664Z,1005.42
2018-01-21T03:18:23.264Z,1005.44
2018-01-21T03:18:23.862Z,1005.44
2018-01-21T03:18:24.464Z,1005.43
2018-01-21T03:19:18.941Z,1005.46
2018-01-21T03:19:19.543Z,1005.50
2018-01-21T03:19:20.139Z,1005.49
2018-01-21T03:19:20.738Z,1005.47
2018-01-21T03:19:21.338Z,1005.44
2018-01-21T03:19:21.937Z,1005.47
2018-01-21T03:19:22.538Z,1005.43
2018-01-21T03:19:23.136Z,1005.47
2018-01-21T03:20:17.617Z,1005.51
2018-01-21T03:20:18.214Z,1005.49
2018-01-21T03:20:18.813Z,1005.50
2018-01-21T03:20:19.416Z,1005.49
2018-01-21T03:20:20.014Z,1005.49
2018-01-21T03:20:20.613Z,1005.49
2018-01-21T03:20:21.213Z,1005.49
2018-01-21T03:20:21.813Z,1005.50
2018-01-21T03:21:15.303Z,1005.50
2018-01-21T03:21:15.865Z,1005.48
2018-01-21T03:21:16.465Z,1005.52
2018-01-21T03:21:17.066Z,1005.50
2018-01-21T03:21:17.668Z,1005.49
2018-01-21T03:21:18.267Z,1005.53
2018-01-21T03:21:18.870Z,1005.53
2018-01-21T03:21:19.465Z,1005.52
2018-01-21T03:22:12.921Z,1005.52
2018-01-21T03:22:13.522Z,1005.53
2018-01-21T03:22:14.119Z,1005.51
2018-01-21T03:22:14.733Z,1005.52
2018-01-21T03:22:15.317Z,1005.53
2018-01-21T03:22:15.919Z,1005.52
2018-01-21T03:22:16.525Z,1005.53
2018-01-21T03:22:17.116Z,1005.51
2018-01-21T03:23:11.086Z,1005.55
2018-01-21T03:23:11.685Z,1005.52
2018-01-21T03:23:12.281Z,1005.53
2018-01-21T03:23:12.881Z,1005.53
2018-01-21T03:23:13.483Z,1005.56
2018-01-21T03:23:14.080Z,1005.53
2018-01-21T03:23:14.689Z,1005.52
2018-01-21T03:24:08.123Z,1005.58
2018-01-21T03:24:08.721Z,1005.56
2018-01-21T03:24:09.319Z,1005.59
2018-01-21T03:24:09.919Z,1005.57
2018-01-21T03:24:10.523Z,1005.55
2018-01-21T03:24:11.117Z,1005.55
2018-01-21T03:24:11.717Z,1005.52
2018-01-21T03:24:12.317Z,1005.58
2018-01-21T03:25:05.774Z,1005.59
2018-01-21T03:25:06.371Z,1005.58
2018-01-21T03:25:06.971Z,1005.56
2018-01-21T03:25:07.571Z,1005.57
2018-01-21T03:25:08.170Z,1005.58
2018-01-21T03:25:08.770Z,1005.58
2018-01-21T03:25:09.380Z,1005.53
2018-01-21T03:25:09.970Z,1005.55
2018-01-21T03:26:03.425Z,1005.61
2018-01-21T03:26:04.023Z,1005.58
2018-01-21T03:26:04.623Z,1005.61
2018-01-21T03:26:05.221Z,1005.58
2018-01-21T03:26:05.821Z,1005.57
2018-01-21T03:26:06.424Z,1005.60
2018-01-21T03:26:07.022Z,1005.57
2018-01-21T03:26:07.622Z,1005.58
2018-01-21T03:27:02.135Z,1005.59
2018-01-21T03:27:02.698Z,1005.59
2018-01-21T03:27:03.300Z,1005.56
2018-01-21T03:27:03.910Z,1005.57
2018-01-21T03:27:04.498Z,1005.59
2018-01-21T03:27:05.098Z,1005.59
2018-01-21T03:27:05.696Z,1005.60
2018-01-21T03:27:06.297Z,1005.58
2018-01-21T03:28:00.775Z,1005.62
2018-01-21T03:28:01.373Z,1005.62
2018-01-21T03:28:01.973Z,1005.60
2018-01-21T03:28:02.572Z,1005.62
2018-01-21T03:28:03.172Z,1005.61
2018-01-21T03:28:03.773Z,1005.59
2018-01-21T03:28:04.371Z,1005.61
2018-01-21T03:28:04.973Z,1005.60
2018-01-21T03:28:58.428Z,1005.70
2018-01-21T03:28:59.027Z,1005.69
2018-01-21T03:28:59.625Z,1005.72
2018-01-21T03:29:00.225Z,1005.63
2018-01-21T03:29:00.827Z,1005.66
2018-01-21T03:29:01.426Z,1005.65
2018-01-21T03:29:02.032Z,1005.68
2018-01-21T03:29:02.624Z,1005.67
2018-01-21T03:29:56.084Z,1005.71
2018-01-21T03:29:56.675Z,1005.66
2018-01-21T03:29:57.274Z,1005.67
2018-01-21T03:29:57.878Z,1005.67
2018-01-21T03:29:58.475Z,1005.66
2018-01-21T03:29:59.075Z,1005.66
2018-01-21T03:29:59.675Z,1005.66
2018-01-21T03:30:00.275Z,1005.68
2018-01-21T03:30:54.754Z,1005.74
2018-01-21T03:30:55.355Z,1005.71
2018-01-21T03:30:55.952Z,1005.71
2018-01-21T03:30:56.552Z,1005.74
2018-01-21T03:30:57.151Z,1005.72
2018-01-21T03:30:57.752Z,1005.72
2018-01-21T03:30:58.351Z,1005.68
2018-01-21T03:30:58.951Z,1005.74
2018-01-21T03:31:52.409Z,1005.70
2018-01-21T03:31:53.006Z,1005.74
2018-01-21T03:31:53.605Z,1005.70
2018-01-21T03:31:54.203Z,1005.70
2018-01-21T03:31:54.803Z,1005.71
2018-01-21T03:31:55.410Z,1005.72
2018-01-21T03:31:56.009Z,1005.67
2018-01-21T03:31:56.603Z,1005.73
2018-01-21T03:32:50.094Z,1005.72
2018-01-21T03:32:50.703Z,1005.73
2018-01-21T03:32:51.256Z,1005.68
2018-01-21T03:32:51.855Z,1005.74
2018-01-21T03:32:52.455Z,1005.71
2018-01-21T03:32:53.056Z,1005.74
2018-01-21T03:32:53.654Z,1005.74
2018-01-21T03:32:54.254Z,1005.75
2018-01-21T03:33:48.734Z,1005.74
2018-01-21T03:33:49.335Z,1005.75
2018-01-21T03:33:49.930Z,1005.74
2018-01-21T03:33:50.530Z,1005.73
2018-01-21T03:33:51.129Z,1005.76
2018-01-21T03:33:51.732Z,1005.75
2018-01-21T03:33:52.329Z,1005.75
2018-01-21T03:33:52.932Z,1005.74
2018-01-21T03:34:46.386Z,1005.74
2018-01-21T03:34:46.985Z,1005.75
2018-01-21T03:34:47.583Z,1005.76
2018-01-21T03:34:48.183Z,1005.72
2018-01-21T03:34:48.785Z,1005.78
2018-01-21T03:34:49.383Z,1005.75
2018-01-21T03:34:49.991Z,1005.78
2018-01-21T03:34:50.583Z,1005.78
2018-01-21T03:35:44.039Z,1005.77
2018-01-21T03:35:44.638Z,1005.77
2018-01-21T03:35:45.234Z,1005.78
2018-01-21T03:35:45.836Z,1005.79
2018-01-21T03:35:46.435Z,1005.75
2018-01-21T03:35:47.035Z,1005.77
2018-01-21T03:35:47.636Z,1005.79
2018-01-21T03:35:48.233Z,1005.79
2018-01-21T03:36:42.712Z,1005.79
2018-01-21T03:36:43.312Z,1005.79
2018-01-21T03:36:43.910Z,1005.76
2018-01-21T03:36:44.509Z,1005.75
2018-01-21T03:36:45.110Z,1005.80
2018-01-21T03:36:45.709Z,1005.80
2018-01-21T03:36:46.308Z,1005.81
2018-01-21T03:36:46.909Z,1005.78
2018-01-21T03:37:41.388Z,1005.83
2018-01-21T03:37:41.987Z,1005.81
2018-01-21T03:37:42.585Z,1005.84
2018-01-21T03:37:43.185Z,1005.82
2018-01-21T03:37:43.793Z,1005.83
2018-01-21T03:37:44.384Z,1005.87
2018-01-21T03:37:44.983Z,1005.84
2018-01-21T03:37:45.584Z,1005.82
2018-01-21T03:38:39.166Z,1005.84
2018-01-21T03:38:39.673Z,1005.82
2018-01-21T03:38:40.270Z,1005.80
2018-01-21T03:38:40.869Z,1005.83
2018-01-21T03:38:41.469Z,1005.82
2018-01-21T03:38:42.069Z,1005.85
2018-01-21T03:38:42.669Z,1005.83
2018-01-21T03:38:43.270Z,1005.83
2018-01-21T03:39:37.715Z,1005.88
2018-01-21T03:39:38.321Z,1005.89
2018-01-21T03:39:38.913Z,1005.84
2018-01-21T03:39:39.512Z,1005.85
2018-01-21T03:39:40.112Z,1005.82
2018-01-21T03:39:40.712Z,1005.87
2018-01-21T03:39:41.311Z,1005.87
2018-01-21T03:39:41.910Z,1005.89
2018-01-21T03:40:36.391Z,1005.91
2018-01-21T03:40:36.992Z,1005.91
2018-01-21T03:40:37.588Z,1005.92
2018-01-21T03:40:38.189Z,1005.89
2018-01-21T03:40:38.788Z,1005.91
2018-01-21T03:40:39.387Z,1005.91
2018-01-21T03:40:39.987Z,1005.89
2018-01-21T03:40:40.591Z,1005.91
2018-01-21T03:41:35.067Z,1005.91
2018-01-21T03:41:35.664Z,1005.97
2018-01-21T03:41:36.267Z,1005.92
2018-01-21T03:41:36.864Z,1005.91
2018-01-21T03:41:37.464Z,1005.92
2018-01-21T03:41:38.067Z,1005.94
2018-01-21T03:41:38.674Z,1005.93
2018-01-21T03:41:39.263Z,1005.93
2018-01-21T03:42:32.721Z,1006.00
2018-01-21T03:42:33.317Z,1005.97
2018-01-21T03:42:33.916Z,1006.01
2018-01-21T03:42:34.515Z,1005.99
2018-01-21T03:42:35.117Z,1005.99
2018-01-21T03:42:35.728Z,1006.00
2018-01-21T03:42:36.321Z,1005.97
2018-01-21T03:42:36.915Z,1006.01
2018-01-21T03:43:31.395Z,1006.01
2018-01-21T03:43:31.993Z,1005.99
2018-01-21T03:43:32.591Z,1006.02
2018-01-21T03:43:33.191Z,1006.04